createdAt,value
2019-02-21T00:00:48.004Z,6.60
2019-02-21T00:03:16.233Z,6.60
2019-02-21T00:05:45.324Z,6.58
2019-02-21T00:08:14.455Z,6.56
2019-02-21T00:10:43.607Z,6.59
2019-02-21T00:13:13.240Z,6.59
2019-02-21T00:15:42.431Z,6.61
2019-02-21T00:18:11.589Z,6.60
2019-02-21T00:20:40.762Z,6.61
2019-02-21T00:23:09.885Z,6.61
2019-02-21T00:25:39.043Z,6.61
2019-02-21T00:28:08.241Z,6.60
2019-02-21T00:30:37.395Z,6.60
2019-02-21T00:33:06.545Z,6.59
2019-02-21T00:35:35.766Z,6.58
2019-02-21T00:38:04.853Z,6.58
2019-02-21T00:40:34.122Z,6.56
2019-02-21T00:43:03.330Z,6.53
2019-02-21T00:45:32.500Z,6.52
2019-02-21T00:48:01.634Z,6.54
2019-02-21T00:50:30.775Z,6.54
2019-02-21T00:52:59.920Z,6.54
2019-02-21T00:55:29.061Z,6.56
2019-02-21T00:57:58.708Z,6.59
2019-02-21T01:00:27.893Z,6.58
2019-02-21T01:02:57.088Z,6.58
2019-02-21T01:05:26.252Z,6.60
2019-02-21T01:07:55.404Z,6.60
2019-02-21T01:10:24.565Z,6.61
2019-02-21T01:12:53.724Z,6.61
2019-02-21T01:15:22.878Z,6.60
2019-02-21T01:17:52.027Z,6.62
2019-02-21T01:20:22.408Z,6.64
2019-02-21T01:22:51.481Z,6.64
2019-02-21T01:25:20.617Z,6.63
2019-02-21T01:27:49.763Z,6.62
2019-02-21T01:30:18.912Z,6.63
2019-02-21T01:32:48.041Z,6.63
2019-02-21T01:35:17.177Z,6.62
2019-02-21T01:37:46.327Z,6.61
2019-02-21T01:40:15.501Z,6.60
2019-02-21T01:42:44.617Z,6.60
2019-02-21T01:45:13.747Z,6.59
2019-02-21T01:47:42.924Z,6.59
2019-02-21T01:50:12.062Z,6.56
2019-02-21T01:52:41.219Z,6.54
2019-02-21T01:55:10.401Z,6.54
2019-02-21T01:57:39.542Z,6.52
2019-02-21T02:00:09.666Z,6.51
2019-02-21T02:02:38.838Z,6.51
2019-02-21T02:05:08.269Z,6.51
2019-02-21T02:07:38.330Z,6.51
2019-02-21T02:10:08.486Z,6.54
2019-02-21T02:12:37.637Z,6.58
2019-02-21T02:15:07.079Z,6.61
2019-02-21T02:17:36.298Z,6.61
2019-02-21T02:20:05.735Z,6.60
2019-02-21T02:22:34.884Z,6.59
2019-02-21T02:25:04.023Z,6.52
2019-02-21T02:27:33.172Z,6.48
2019-02-21T02:30:02.325Z,6.47
2019-02-21T02:32:31.479Z,6.46
2019-02-21T02:35:00.639Z,6.43
2019-02-21T02:37:29.784Z,6.45
2019-02-21T02:39:58.923Z,6.57
2019-02-21T02:42:28.086Z,6.68
2019-02-21T02:44:57.207Z,6.73
2019-02-21T02:47:26.336Z,6.77
2019-02-21T02:49:55.471Z,6.81
2019-02-21T02:52:24.646Z,6.84
2019-02-21T02:54:53.882Z,6.90
2019-02-21T02:57:23.051Z,6.97
2019-02-21T02:59:52.174Z,6.98
2019-02-21T03:02:21.334Z,7.01
2019-02-21T03:04:50.534Z,7.02
2019-02-21T03:07:19.806Z,7.06
2019-02-21T03:09:48.879Z,7.10
2019-02-21T03:12:18.014Z,7.12
2019-02-21T03:14:47.158Z,7.15
2019-02-21T03:17:16.272Z,7.17
2019-02-21T03:19:45.437Z,7.19
2019-02-21T03:22:14.587Z,7.20
2019-02-21T03:24:46.757Z,7.20
2019-02-21T03:27:15.875Z,7.19
2019-02-21T03:29:45.009Z,7.17
2019-02-21T03:32:14.137Z,7.15
2019-02-21T03:34:43.294Z,7.14
2019-02-21T03:37:12.470Z,7.12
2019-02-21T03:39:41.630Z,7.10
2019-02-21T03:42:10.760Z,7.08
2019-02-21T03:44:39.941Z,7.06
2019-02-21T03:47:09.108Z,7.04
2019-02-21T03:49:38.240Z,7.03
2019-02-21T03:52:07.361Z,7.01
2019-02-21T03:54:36.644Z,7.00
2019-02-21T03:57:05.902Z,7.00
2019-02-21T03:59:35.053Z,6.98
2019-02-21T04:02:05.621Z,6.97
2019-02-21T04:04:35.237Z,6.97
2019-02-21T04:07:04.410Z,6.96
2019-02-21T04:09:33.649Z,6.94
2019-02-21T04:12:02.806Z,6.93
2019-02-21T04:14:32.010Z,6.90
2019-02-21T04:17:01.136Z,6.88
2019-02-21T04:19:30.343Z,6.88
2019-02-21T04:21:59.458Z,6.87
2019-02-21T04:24:28.650Z,6.86
2019-02-21T04:26:57.791Z,6.86
2019-02-21T04:29:26.961Z,6.86
2019-02-21T04:31:56.086Z,6.86
2019-02-21T04:34:25.261Z,6.88
2019-02-21T04:36:54.410Z,6.93
2019-02-21T04:39:23.535Z,6.99
2019-02-21T04:41:52.691Z,7.03
2019-02-21T04:44:21.844Z,7.07
2019-02-21T04:46:50.978Z,7.08
2019-02-21T04:49:20.163Z,7.09
2019-02-21T04:51:49.337Z,7.11
2019-02-21T04:54:18.483Z,7.12
2019-02-21T04:56:47.651Z,7.10
2019-02-21T04:59:16.791Z,7.13
2019-02-21T05:01:45.957Z,7.15
2019-02-21T05:04:15.131Z,7.17
2019-02-21T05:06:44.285Z,7.16
2019-02-21T05:09:13.438Z,7.15
2019-02-21T05:11:42.575Z,7.11
2019-02-21T05:14:11.749Z,7.14
2019-02-21T05:16:40.860Z,7.13
2019-02-21T05:19:10.007Z,7.13
2019-02-21T05:21:39.155Z,7.12
2019-02-21T05:24:08.296Z,7.10
2019-02-21T05:29:26.602Z,7.11
2019-02-21T05:32:23.509Z,7.10
2019-02-21T05:35:20.900Z,7.10
2019-02-21T05:38:12.225Z,7.09
2019-02-21T05:40:51.438Z,7.09
2019-02-21T05:43:37.266Z,7.09
2019-02-21T05:46:19.054Z,7.09
2019-02-21T05:48:57.657Z,7.11
2019-02-21T05:51:51.636Z,7.13
2019-02-21T05:54:31.902Z,7.13
2019-02-21T05:57:09.329Z,7.13
2019-02-21T06:00:09.524Z,7.14
2019-02-21T06:02:53.270Z,7.13
2019-02-21T06:05:43.362Z,7.13
2019-02-21T06:08:26.413Z,7.15
2019-02-21T06:11:08.463Z,7.14
2019-02-21T06:13:45.756Z,7.15
2019-02-21T06:16:49.213Z,7.14
2019-02-21T06:19:40.065Z,7.14
2019-02-21T06:22:26.803Z,7.14
2019-02-21T06:25:00.699Z,7.14
2019-02-21T06:27:39.864Z,7.16
2019-02-21T06:30:13.644Z,7.18
2019-02-21T06:32:42.796Z,7.19
2019-02-21T06:35:12.008Z,7.19
2019-02-21T06:37:41.140Z,7.20
2019-02-21T06:40:10.400Z,7.21
2019-02-21T06:42:39.575Z,7.21
2019-02-21T06:45:08.732Z,7.22
2019-02-21T06:47:37.900Z,7.25
2019-02-21T06:50:07.145Z,7.25
2019-02-21T06:52:36.428Z,7.29
2019-02-21T06:55:05.658Z,7.27
2019-02-21T06:57:34.876Z,7.29
2019-02-21T07:00:04.704Z,7.30
2019-02-21T07:02:33.869Z,7.30
2019-02-21T07:05:03.076Z,7.33
2019-02-21T07:07:32.237Z,7.34
2019-02-21T07:10:01.365Z,7.34
2019-02-21T07:12:30.487Z,7.37
2019-02-21T07:14:59.657Z,7.39
2019-02-21T07:17:28.781Z,7.40
2019-02-21T07:19:57.961Z,7.43
2019-02-21T07:22:27.112Z,7.44
2019-02-21T07:25:00.618Z,7.46
2019-02-21T07:27:29.758Z,7.50
2019-02-21T07:29:58.897Z,7.55
2019-02-21T07:32:28.103Z,7.64
2019-02-21T07:34:57.241Z,7.72
2019-02-21T07:37:26.442Z,7.81
2019-02-21T07:39:55.604Z,7.89
2019-02-21T07:42:24.740Z,7.99
2019-02-21T07:44:54.101Z,8.08
2019-02-21T07:47:24.278Z,8.16
2019-02-21T07:49:53.439Z,8.25
2019-02-21T07:52:22.576Z,8.39
2019-02-21T07:55:01.331Z,8.53
2019-02-21T07:57:22.650Z,8.64
2019-02-21T07:59:51.812Z,8.74
2019-02-21T08:02:21.154Z,8.86
2019-02-21T08:04:50.270Z,9.04
2019-02-21T08:07:19.422Z,9.36
2019-02-21T08:09:48.571Z,10.27
2019-02-21T08:12:17.769Z,11.16
2019-02-21T08:14:46.924Z,11.93
2019-02-21T08:17:16.425Z,12.20
2019-02-21T08:19:45.651Z,12.31
2019-02-21T08:22:14.816Z,12.52
2019-02-21T08:24:43.994Z,13.30
2019-02-21T08:27:13.157Z,13.44
2019-02-21T08:29:42.299Z,13.22
2019-02-21T08:32:13.867Z,12.74
2019-02-21T08:34:48.180Z,12.20
2019-02-21T08:37:16.950Z,11.71
2019-02-21T08:39:46.138Z,11.29
2019-02-21T08:42:15.330Z,11.00
2019-02-21T08:44:44.443Z,10.78
2019-02-21T08:47:13.683Z,10.62
2019-02-21T08:49:42.852Z,10.89
2019-02-21T08:52:12.010Z,11.69
2019-02-21T08:54:41.154Z,12.46
2019-02-21T08:57:10.345Z,13.49
2019-02-21T08:59:42.187Z,14.42
2019-02-21T09:02:10.398Z,14.58
2019-02-21T09:04:39.527Z,14.32
2019-02-21T09:07:08.919Z,13.89
2019-02-21T09:09:38.124Z,13.42
2019-02-21T09:12:07.320Z,13.58
2019-02-21T09:14:36.767Z,14.54
2019-02-21T09:17:05.955Z,14.76
2019-02-21T09:19:36.823Z,14.34
2019-02-21T09:22:06.150Z,13.73
2019-02-21T09:24:41.287Z,13.05
2019-02-21T09:27:06.249Z,12.61
2019-02-21T09:29:35.361Z,12.27
2019-02-21T09:32:06.873Z,11.94
2019-02-21T09:34:35.386Z,11.73
2019-02-21T09:37:05.436Z,11.83
2019-02-21T09:39:34.744Z,11.72
2019-02-21T09:42:03.876Z,11.80
2019-02-21T09:44:35.748Z,11.76
2019-02-21T09:47:03.944Z,11.62
2019-02-21T09:49:33.082Z,11.55
2019-02-21T09:52:02.240Z,11.45
2019-02-21T09:54:31.411Z,11.39
2019-02-21T09:57:00.540Z,11.26
2019-02-21T09:59:29.714Z,11.25
2019-02-21T10:01:58.850Z,11.32
2019-02-21T10:04:32.127Z,10.60
2019-02-21T10:06:58.993Z,11.61
2019-02-21T10:09:28.124Z,11.86
2019-02-21T10:11:59.091Z,12.63
2019-02-21T10:14:28.400Z,13.80
2019-02-21T10:16:57.600Z,15.01
2019-02-21T10:19:26.792Z,16.08
2019-02-21T10:21:55.945Z,16.90
2019-02-21T10:24:25.172Z,17.31
2019-02-21T10:26:54.307Z,17.25
2019-02-21T10:29:23.798Z,17.36
2019-02-21T10:31:52.987Z,17.64
2019-02-21T10:34:22.251Z,17.32
2019-02-21T10:36:51.357Z,17.05
2019-02-21T10:39:20.544Z,16.68
2019-02-21T10:41:49.727Z,16.15
2019-02-21T10:44:18.879Z,15.96
2019-02-21T10:46:48.054Z,15.53
2019-02-21T10:49:17.248Z,14.92
2019-02-21T10:51:46.421Z,14.59
2019-02-21T10:54:15.600Z,14.32
2019-02-21T10:56:44.744Z,13.95
2019-02-21T10:59:13.940Z,13.63
2019-02-21T11:01:43.085Z,13.48
2019-02-21T11:04:12.354Z,13.33
2019-02-21T11:06:41.506Z,13.28
2019-02-21T11:09:19.732Z,13.23
2019-02-21T11:11:48.921Z,13.09
2019-02-21T11:14:18.116Z,13.02
2019-02-21T11:16:47.295Z,12.95
2019-02-21T11:19:16.478Z,12.81
2019-02-21T11:21:45.635Z,12.60
2019-02-21T11:24:14.905Z,12.58
2019-02-21T11:26:44.078Z,12.52
2019-02-21T11:29:13.238Z,12.55
2019-02-21T11:31:42.456Z,12.50
2019-02-21T11:34:11.585Z,12.52
2019-02-21T11:36:40.764Z,12.37
2019-02-21T11:39:09.951Z,12.34
2019-02-21T11:41:39.115Z,12.31
2019-02-21T11:44:08.311Z,12.15
2019-02-21T11:46:37.478Z,12.16
2019-02-21T11:49:06.767Z,12.23
2019-02-21T11:51:35.896Z,12.25
2019-02-21T11:54:05.115Z,12.15
2019-02-21T11:56:34.434Z,12.14
2019-02-21T11:59:03.614Z,12.12
2019-02-21T12:01:32.779Z,12.01
2019-02-21T12:04:02.069Z,12.05
2019-02-21T12:06:31.166Z,12.07
2019-02-21T12:09:00.368Z,12.13
2019-02-21T12:11:29.686Z,11.98
2019-02-21T12:13:58.824Z,12.13
2019-02-21T12:16:28.014Z,12.24
2019-02-21T12:18:57.207Z,12.34
2019-02-21T12:21:26.428Z,12.38
2019-02-21T12:23:55.658Z,12.37
2019-02-21T12:26:24.833Z,12.49
2019-02-21T12:28:54.015Z,12.46
2019-02-21T12:31:23.145Z,12.48
2019-02-21T12:33:52.335Z,12.56
2019-02-21T12:36:21.623Z,12.51
2019-02-21T12:38:50.866Z,12.59
2019-02-21T12:41:20.020Z,12.63
2019-02-21T12:43:49.515Z,12.55
2019-02-21T12:46:18.697Z,12.58
2019-02-21T12:48:47.887Z,12.64
2019-02-21T12:51:17.074Z,12.65
2019-02-21T12:53:46.259Z,12.57
2019-02-21T12:56:15.399Z,12.32
2019-02-21T12:58:45.349Z,12.25
2019-02-21T13:01:14.682Z,12.25
2019-02-21T13:03:43.997Z,12.27
2019-02-21T13:06:13.184Z,12.33
2019-02-21T13:08:42.340Z,12.41
2019-02-21T13:11:11.537Z,12.39
2019-02-21T13:13:40.688Z,12.34
2019-02-21T13:16:09.833Z,12.30
2019-02-21T13:18:39.024Z,12.24
2019-02-21T13:21:08.246Z,12.23
2019-02-21T13:23:37.433Z,12.19
2019-02-21T13:26:09.532Z,12.17
2019-02-21T13:28:38.716Z,12.24
2019-02-21T13:31:07.870Z,12.13
2019-02-21T13:33:37.166Z,12.22
2019-02-21T13:36:06.625Z,12.19
2019-02-21T13:38:35.818Z,12.22
2019-02-21T13:41:04.955Z,12.23
2019-02-21T13:43:34.156Z,12.25
2019-02-21T13:46:03.393Z,12.30
2019-02-21T13:48:32.555Z,12.39
2019-02-21T13:51:01.751Z,12.41
2019-02-21T13:53:30.911Z,12.33
2019-02-21T13:56:00.094Z,12.47
2019-02-21T13:58:29.251Z,12.61
2019-02-21T14:00:58.413Z,12.76
2019-02-21T14:03:27.561Z,12.83
2019-02-21T14:06:03.676Z,12.89
2019-02-21T14:08:27.694Z,12.86
2019-02-21T14:10:56.950Z,12.81
2019-02-21T14:13:26.130Z,12.84
2019-02-21T14:15:55.337Z,12.84
2019-02-21T14:18:24.649Z,12.81
2019-02-21T14:20:53.756Z,12.71
2019-02-21T14:23:22.918Z,12.61
2019-02-21T14:25:52.136Z,12.54
2019-02-21T14:28:21.285Z,12.48
2019-02-21T14:30:50.492Z,12.46
2019-02-21T14:33:19.629Z,12.48
2019-02-21T14:35:48.864Z,12.40
2019-02-21T14:38:27.428Z,12.44
2019-02-21T14:40:48.902Z,12.30
2019-02-21T14:43:18.035Z,12.35
2019-02-21T14:45:47.226Z,12.42
2019-02-21T14:48:16.372Z,12.42
2019-02-21T14:50:45.574Z,12.50
2019-02-21T14:53:14.765Z,12.46
2019-02-21T14:55:43.920Z,12.49
2019-02-21T14:58:13.129Z,12.50
2019-02-21T15:00:42.386Z,12.49
2019-02-21T15:03:21.457Z,12.43
2019-02-21T15:05:42.547Z,12.33
2019-02-21T15:08:11.723Z,12.34
2019-02-21T15:10:40.855Z,12.29
2019-02-21T15:13:10.131Z,12.32
2019-02-21T15:15:39.291Z,12.34
2019-02-21T15:18:11.227Z,12.26
2019-02-21T15:20:39.417Z,12.26
2019-02-21T15:23:08.742Z,12.24
2019-02-21T15:25:38.019Z,12.20
2019-02-21T15:28:07.209Z,12.17
2019-02-21T15:30:36.458Z,12.19
2019-02-21T15:33:05.620Z,12.12
2019-02-21T15:35:34.838Z,12.02
2019-02-21T15:38:04.011Z,12.04
2019-02-21T15:40:33.194Z,12.10
2019-02-21T15:43:05.136Z,12.13
2019-02-21T15:45:33.256Z,12.16
2019-02-21T15:48:02.461Z,12.14
2019-02-21T15:50:31.794Z,12.06
2019-02-21T15:53:01.010Z,12.06
2019-02-21T15:55:32.151Z,12.06
2019-02-21T15:58:04.411Z,12.07
2019-02-21T16:00:31.935Z,12.01
2019-02-21T16:03:01.147Z,11.97
2019-02-21T16:05:30.286Z,12.00
2019-02-21T16:07:59.605Z,11.98
2019-02-21T16:10:28.827Z,11.97
2019-02-21T16:12:58.853Z,11.94
2019-02-21T16:15:28.541Z,11.93
2019-02-21T16:17:57.736Z,11.91
2019-02-21T16:20:26.999Z,11.88
2019-02-21T16:22:56.138Z,11.85
2019-02-21T16:25:26.220Z,11.80
2019-02-21T16:27:55.850Z,11.73
2019-02-21T16:30:25.144Z,11.66
2019-02-21T16:32:54.382Z,11.64
2019-02-21T16:35:27.196Z,11.60
2019-02-21T16:37:55.565Z,11.57
2019-02-21T16:40:26.199Z,11.53
2019-02-21T16:42:55.427Z,11.51
2019-02-21T16:45:24.591Z,11.49
2019-02-21T16:47:53.754Z,11.49
2019-02-21T16:50:29.634Z,11.44
2019-02-21T16:52:53.868Z,11.42
2019-02-21T16:55:23.063Z,11.39
2019-02-21T16:57:52.259Z,11.35
2019-02-21T17:00:23.927Z,11.34
2019-02-21T17:02:52.350Z,11.33
2019-02-21T17:05:21.517Z,11.34
2019-02-21T17:07:50.906Z,11.33
2019-02-21T17:10:20.191Z,11.30
2019-02-21T17:12:49.382Z,11.26
2019-02-21T17:15:18.620Z,11.27
2019-02-21T17:17:48.218Z,11.24
2019-02-21T17:20:17.753Z,11.18
2019-02-21T17:22:47.052Z,11.18
2019-02-21T17:25:16.275Z,11.18
2019-02-21T17:27:45.525Z,11.17
2019-02-21T17:30:16.378Z,11.14
2019-02-21T17:32:45.649Z,11.13
2019-02-21T17:35:15.145Z,11.12
2019-02-21T17:37:44.538Z,11.12
2019-02-21T17:40:16.540Z,11.14
2019-02-21T17:42:45.768Z,11.10
2019-02-21T17:45:15.176Z,11.11
2019-02-21T17:47:44.534Z,11.07
2019-02-21T17:50:14.791Z,11.08
2019-02-21T17:52:44.266Z,11.05
2019-02-21T17:55:14.125Z,11.05
2019-02-21T17:57:46.785Z,11.06
2019-02-21T18:00:20.034Z,11.05
2019-02-21T18:02:49.187Z,11.07
2019-02-21T18:05:18.402Z,11.04
2019-02-21T18:07:47.577Z,11.06
2019-02-21T18:10:16.820Z,11.07
2019-02-21T18:12:46.101Z,11.05
2019-02-21T18:15:15.479Z,11.01
2019-02-21T18:17:44.735Z,11.04
2019-02-21T18:20:14.148Z,11.03
2019-02-21T18:22:43.590Z,11.02
2019-02-21T18:25:16.022Z,10.97
2019-02-21T18:27:45.338Z,10.99
2019-02-21T18:30:15.726Z,10.99
2019-02-21T18:32:44.952Z,11.01
2019-02-21T18:35:14.520Z,11.01
2019-02-21T18:37:47.401Z,10.99
2019-02-21T18:40:17.776Z,10.98
2019-02-21T18:42:46.870Z,10.97
2019-02-21T18:45:16.215Z,10.96
2019-02-21T18:47:45.420Z,10.91
2019-02-21T18:50:14.705Z,10.94
2019-02-21T18:52:44.129Z,10.93
2019-02-21T18:55:13.790Z,10.94
2019-02-21T18:57:43.142Z,10.92
2019-02-21T19:00:13.976Z,10.95
2019-02-21T19:02:43.512Z,10.95
2019-02-21T19:05:12.726Z,10.89
2019-02-21T19:07:42.124Z,10.88
2019-02-21T19:10:13.049Z,10.85
2019-02-21T19:12:42.649Z,10.81
2019-02-21T19:15:12.353Z,10.77
2019-02-21T19:17:42.782Z,10.75
2019-02-21T19:20:12.837Z,10.70
2019-02-21T19:22:42.421Z,10.67
2019-02-21T19:25:11.888Z,10.65
2019-02-21T19:27:41.563Z,10.66
2019-02-21T19:30:15.081Z,10.65
2019-02-21T19:32:44.288Z,10.62
2019-02-21T19:35:13.795Z,10.59
2019-02-21T19:37:43.270Z,10.58
2019-02-21T19:40:12.734Z,10.59
2019-02-21T19:42:42.165Z,10.54
2019-02-21T19:45:11.885Z,10.54
2019-02-21T19:47:41.337Z,10.49
2019-02-21T19:50:10.843Z,10.50
2019-02-21T19:52:40.553Z,10.45
2019-02-21T19:55:09.931Z,10.48
2019-02-21T19:57:39.555Z,10.42
2019-02-21T20:00:12.260Z,10.37
2019-02-21T20:02:41.868Z,10.35
2019-02-21T20:05:11.218Z,10.34
2019-02-21T20:07:40.536Z,10.35
2019-02-21T20:10:09.962Z,10.35
2019-02-21T20:12:39.398Z,10.37
2019-02-21T20:15:09.122Z,10.34
2019-02-21T20:17:39.031Z,10.32
2019-02-21T20:20:09.677Z,10.36
2019-02-21T20:22:39.072Z,10.36
2019-02-21T20:25:08.555Z,10.36
2019-02-21T20:27:37.740Z,10.33
2019-02-21T20:30:08.420Z,10.33
2019-02-21T20:32:37.668Z,10.33
2019-02-21T20:35:07.182Z,10.28
2019-02-21T20:37:36.554Z,10.31
2019-02-21T20:40:06.707Z,10.27
2019-02-21T20:42:36.052Z,10.23
2019-02-21T20:45:26.166Z,10.22
2019-02-21T20:47:55.441Z,10.22
2019-02-21T20:50:24.698Z,10.25
2019-02-21T20:52:54.306Z,10.24
2019-02-21T20:55:23.627Z,10.23
2019-02-21T20:57:52.891Z,10.22
2019-02-21T21:00:23.991Z,10.21
2019-02-21T21:02:53.166Z,10.22
2019-02-21T21:05:22.773Z,10.21
2019-02-21T21:07:52.428Z,10.22
2019-02-21T21:10:21.996Z,10.23
2019-02-21T21:12:51.453Z,10.19
2019-02-21T21:15:20.698Z,10.22
2019-02-21T21:17:50.106Z,10.20
2019-02-21T21:20:19.363Z,10.22
2019-02-21T21:22:48.570Z,10.24
2019-02-21T21:25:17.920Z,10.24
2019-02-21T21:27:47.120Z,10.24
2019-02-21T21:30:16.724Z,10.22
2019-02-21T21:32:46.002Z,10.18
2019-02-21T21:35:15.391Z,10.19
2019-02-21T21:37:44.813Z,10.20
2019-02-21T21:40:14.776Z,10.16
2019-02-21T21:42:43.923Z,10.16
2019-02-21T21:45:15.186Z,10.19
2019-02-21T21:47:44.479Z,10.18
2019-02-21T21:50:15.115Z,10.20
2019-02-21T21:52:44.315Z,10.20
2019-02-21T21:55:13.496Z,10.22
2019-02-21T21:57:42.797Z,10.21
2019-02-21T22:00:17.778Z,10.18
2019-02-21T22:02:46.143Z,10.19
2019-02-21T22:05:15.352Z,10.16
2019-02-21T22:07:44.630Z,10.12
2019-02-21T22:10:14.121Z,10.12
2019-02-21T22:12:43.288Z,10.11
2019-02-21T22:15:12.854Z,10.12
2019-02-21T22:17:42.319Z,10.12
2019-02-21T22:20:11.512Z,10.11
2019-02-21T22:22:40.780Z,10.15
2019-02-21T22:25:10.988Z,10.12
2019-02-21T22:27:40.187Z,10.11
2019-02-21T22:30:11.331Z,10.08
2019-02-21T22:32:40.481Z,10.09
2019-02-21T22:35:09.631Z,10.07
2019-02-21T22:37:38.785Z,10.09
2019-02-21T22:40:09.505Z,10.12
2019-02-21T22:42:38.687Z,10.10
2019-02-21T22:45:08.294Z,10.09
2019-02-21T22:47:37.459Z,10.08
2019-02-21T22:50:08.693Z,10.05
2019-02-21T22:52:37.855Z,10.06
2019-02-21T22:55:09.977Z,10.06
2019-02-21T22:57:38.123Z,10.05
2019-02-21T23:01:07.224Z,10.05
2019-02-21T23:03:54.811Z,10.06
2019-02-21T23:06:44.808Z,10.10
2019-02-21T23:09:26.951Z,10.09
2019-02-21T23:11:50.390Z,10.07
2019-02-21T23:14:19.703Z,10.06
2019-02-21T23:16:48.824Z,10.10
2019-02-21T23:19:18.024Z,10.12
2019-02-21T23:21:47.221Z,10.08
2019-02-21T23:24:16.414Z,10.06
2019-02-21T23:26:45.614Z,10.06
2019-02-21T23:29:14.906Z,10.06
2019-02-21T23:31:44.093Z,10.06
2019-02-21T23:34:22.774Z,10.06
2019-02-21T23:36:52.862Z,10.06
2019-02-21T23:39:22.080Z,10.07
2019-02-21T23:41:51.244Z,10.09
2019-02-21T23:44:20.461Z,10.09
2019-02-21T23:46:49.653Z,10.09
2019-02-21T23:49:18.894Z,10.07
2019-02-21T23:51:48.866Z,10.05
2019-02-21T23:54:18.136Z,10.06
2019-02-21T23:56:47.341Z,10.06
2019-02-21T23:59:16.513Z,10.06
